Fisher Branch, Canada
Current Conditions -  °F | °C
As of 9:00 AM on Friday 19 Dec 2014 (Local Time) from CYWG Reporting Station
Freezing Drizzle Freezing Drizzle  
Wind Chill:   Ceiling: 400
Heat Index: 21°   Visibility: 2mi
Dew Point: 19°   Wind: 14mph
Humidity: 93%   Direction: 160°SSE
Pressure: 30.07"   Gusts: NA
Location:  51.08°N, 97.62°W
Report Text: CYWG 191500Z 16012KT 2SM -FZDZ BR OVC004 M06/M07 A3007 RMK ST8 CIG RAG SLP200
Loading
Personal Weather Stations






























Interactive Weather Map New forecast layout! Learn more

10-Day Weather Forecast

Advertisements
Track Severe Weather on mobile